sensor_id;sensor_type;location;lat;lon;timestamp;pressure;altitude;pressure_sealevel;temperature;humidity
1480;BME280;732;51.698;4.886;2023-02-03T00:00:08;102704.38;;;6.29;100.00
1480;BME280;732;51.698;4.886;2023-02-03T00:02:41;102685.00;;;6.26;100.00
1480;BME280;732;51.698;4.886;2023-02-03T00:05:10;102700.41;;;6.37;100.00
1480;BME280;732;51.698;4.886;2023-02-03T00:07:38;102721.69;;;6.45;100.00
1480;BME280;732;51.698;4.886;2023-02-03T00:10:08;102708.09;;;6.34;100.00
1480;BME280;732;51.698;4.886;2023-02-03T00:12:38;102718.56;;;6.34;100.00
1480;BME280;732;51.698;4.886;2023-02-03T00:15:09;102623.38;;;5.96;100.00
1480;BME280;732;51.698;4.886;2023-02-03T00:17:37;102709.75;;;6.32;100.00
1480;BME280;732;51.698;4.886;2023-02-03T00:20:09;102725.94;;;6.25;100.00
1480;BME280;732;51.698;4.886;2023-02-03T00:22:39;102717.41;;;6.12;100.00
1480;BME280;732;51.698;4.886;2023-02-03T00:25:08;102678.38;;;5.81;100.00
1480;BME280;732;51.698;4.886;2023-02-03T00:27:36;102680.84;;;5.96;100.00
1480;BME280;732;51.698;4.886;2023-02-03T00:30:06;102733.47;;;6.37;100.00
1480;BME280;732;51.698;4.886;2023-02-03T00:32:35;102669.13;;;6.21;100.00
1480;BME280;732;51.698;4.886;2023-02-03T00:35:04;102731.22;;;6.44;100.00
1480;BME280;732;51.698;4.886;2023-02-03T00:37:37;102713.75;;;6.26;100.00
1480;BME280;732;51.698;4.886;2023-02-03T00:40:08;102691.66;;;6.19;100.00
1480;BME280;732;51.698;4.886;2023-02-03T00:42:37;102713.69;;;6.42;100.00
1480;BME280;732;51.698;4.886;2023-02-03T00:45:07;102725.63;;;6.37;100.00
1480;BME280;732;51.698;4.886;2023-02-03T00:47:36;102695.44;;;6.08;100.00
1480;BME280;732;51.698;4.886;2023-02-03T00:50:06;102725.56;;;6.35;100.00
1480;BME280;732;51.698;4.886;2023-02-03T00:52:37;102732.34;;;6.32;100.00
1480;BME280;732;51.698;4.886;2023-02-03T00:55:07;102732.53;;;6.35;100.00
1480;BME280;732;51.698;4.886;2023-02-03T00:57:36;102719.88;;;6.26;100.00
1480;BME280;732;51.698;4.886;2023-02-03T01:00:06;102746.53;;;6.37;100.00
1480;BME280;732;51.698;4.886;2023-02-03T01:02:35;102742.22;;;6.37;100.00
1480;BME280;732;51.698;4.886;2023-02-03T01:05:04;102579.28;;;5.49;100.00
1480;BME280;732;51.698;4.886;2023-02-03T01:07:34;102689.41;;;6.09;100.00
1480;BME280;732;51.698;4.886;2023-02-03T01:10:09;102610.25;;;5.59;100.00
1480;BME280;732;51.698;4.886;2023-02-03T01:12:37;102663.78;;;6.02;100.00
1480;BME280;732;51.698;4.886;2023-02-03T01:15:08;102663.91;;;6.05;100.00
1480;BME280;732;51.698;4.886;2023-02-03T01:17:37;102740.03;;;6.46;100.00
1480;BME280;732;51.698;4.886;2023-02-03T01:20:06;102670.84;;;6.21;100.00
1480;BME280;732;51.698;4.886;2023-02-03T01:22:40;102714.00;;;6.48;100.00
1480;BME280;732;51.698;4.886;2023-02-03T01:25:10;102667.91;;;6.15;100.00
1480;BME280;732;51.698;4.886;2023-02-03T01:27:38;102714.13;;;6.51;100.00
1480;BME280;732;51.698;4.886;2023-02-03T01:30:09;102721.44;;;6.58;100.00
1480;BME280;732;51.698;4.886;2023-02-03T01:32:37;102673.53;;;6.40;100.00
1480;BME280;732;51.698;4.886;2023-02-03T01:35:07;102713.09;;;6.65;100.00
1480;BME280;732;51.698;4.886;2023-02-03T01:37:35;102534.31;;;5.54;100.00
1480;BME280;732;51.698;4.886;2023-02-03T01:40:05;102696.06;;;6.38;100.00
1480;BME280;732;51.698;4.886;2023-02-03T01:42:36;102693.84;;;6.45;100.00
1480;BME280;732;51.698;4.886;2023-02-03T01:45:06;102524.72;;;5.53;100.00
1480;BME280;732;51.698;4.886;2023-02-03T01:47:43;102708.38;;;6.58;100.00
1480;BME280;732;51.698;4.886;2023-02-03T01:50:16;102694.94;;;6.50;100.00
1480;BME280;732;51.698;4.886;2023-02-03T01:52:50;102693.28;;;6.52;100.00
1480;BME280;732;51.698;4.886;2023-02-03T01:55:24;102667.03;;;6.49;100.00
1480;BME280;732;51.698;4.886;2023-02-03T01:58:00;102630.44;;;6.32;100.00
1480;BME280;732;51.698;4.886;2023-02-03T02:00:30;102668.34;;;6.59;100.00
1480;BME280;732;51.698;4.886;2023-02-03T02:03:01;102684.47;;;6.68;100.00
1480;BME280;732;51.698;4.886;2023-02-03T02:05:42;102651.63;;;6.20;100.00
1480;BME280;732;51.698;4.886;2023-02-03T02:08:15;102711.59;;;6.52;100.00
1480;BME280;732;51.698;4.886;2023-02-03T02:10:45;102700.41;;;6.55;100.00
1480;BME280;732;51.698;4.886;2023-02-03T02:13:18;102695.31;;;6.58;100.00
1480;BME280;732;51.698;4.886;2023-02-03T02:15:57;102670.00;;;6.57;100.00
1480;BME280;732;51.698;4.886;2023-02-03T02:18:39;102691.09;;;6.62;100.00
1480;BME280;732;51.698;4.886;2023-02-03T02:21:50;102678.94;;;6.44;100.00
1480;BME280;732;51.698;4.886;2023-02-03T02:25:08;102687.38;;;6.39;100.00
1480;BME280;732;51.698;4.886;2023-02-03T02:28:18;102692.78;;;6.42;100.00
1480;BME280;732;51.698;4.886;2023-02-03T02:31:44;102682.47;;;6.45;100.00
1480;BME280;732;51.698;4.886;2023-02-03T02:34:23;102697.25;;;6.44;100.00
1480;BME280;732;51.698;4.886;2023-02-03T02:37:06;102646.88;;;6.29;100.00
1480;BME280;732;51.698;4.886;2023-02-03T02:39:48;102676.50;;;6.65;100.00
1480;BME280;732;51.698;4.886;2023-02-03T02:42:27;102694.13;;;6.51;100.00
1480;BME280;732;51.698;4.886;2023-02-03T02:45:08;102657.66;;;6.37;100.00
1480;BME280;732;51.698;4.886;2023-02-03T02:47:41;102680.81;;;6.47;100.00
1480;BME280;732;51.698;4.886;2023-02-03T02:50:15;102594.53;;;5.93;100.00
1480;BME280;732;51.698;4.886;2023-02-03T02:52:49;102677.03;;;6.40;100.00
1480;BME280;732;51.698;4.886;2023-02-03T02:55:23;102597.75;;;6.05;100.00
1480;BME280;732;51.698;4.886;2023-02-03T02:58:03;102660.66;;;6.44;100.00
1480;BME280;732;51.698;4.886;2023-02-03T03:00:35;102636.50;;;6.31;100.00
1480;BME280;732;51.698;4.886;2023-02-03T03:03:14;102665.56;;;6.56;100.00
1480;BME280;732;51.698;4.886;2023-02-03T03:05:49;102626.56;;;6.24;100.00
1480;BME280;732;51.698;4.886;2023-02-03T03:08:29;102664.53;;;6.52;100.00
1480;BME280;732;51.698;4.886;2023-02-03T03:11:01;102570.19;;;5.94;100.00
1480;BME280;732;51.698;4.886;2023-02-03T03:13:34;102630.00;;;6.23;100.00
1480;BME280;732;51.698;4.886;2023-02-03T03:16:07;102629.69;;;6.17;100.00
1480;BME280;732;51.698;4.886;2023-02-03T03:18:42;102576.84;;;5.87;100.00
1480;BME280;732;51.698;4.886;2023-02-03T03:21:19;102650.66;;;6.36;100.00
1480;BME280;732;51.698;4.886;2023-02-03T03:23:51;102676.06;;;6.38;100.00
1480;BME280;732;51.698;4.886;2023-02-03T03:26:27;102658.03;;;6.44;100.00
1480;BME280;732;51.698;4.886;2023-02-03T03:29:06;102659.19;;;6.32;100.00
1480;BME280;732;51.698;4.886;2023-02-03T03:31:36;102655.91;;;6.36;100.00
1480;BME280;732;51.698;4.886;2023-02-03T03:34:09;102656.13;;;6.40;100.00
1480;BME280;732;51.698;4.886;2023-02-03T03:36:43;102602.97;;;6.05;100.00
1480;BME280;732;51.698;4.886;2023-02-03T03:39:24;102661.63;;;6.46;100.00
1480;BME280;732;51.698;4.886;2023-02-03T03:41:59;102653.66;;;6.43;100.00
1480;BME280;732;51.698;4.886;2023-02-03T03:44:32;102654.94;;;6.34;100.00
1480;BME280;732;51.698;4.886;2023-02-03T03:47:10;102631.78;;;6.24;100.00
1480;BME280;732;51.698;4.886;2023-02-03T03:49:43;102665.88;;;6.62;100.00
1480;BME280;732;51.698;4.886;2023-02-03T03:52:17;102660.28;;;6.54;100.00
1480;BME280;732;51.698;4.886;2023-02-03T03:54:48;102682.78;;;6.51;100.00
1480;BME280;732;51.698;4.886;2023-02-03T03:57:22;102674.13;;;6.34;100.00
1480;BME280;732;51.698;4.886;2023-02-03T03:59:53;102696.69;;;6.50;100.00
1480;BME280;732;51.698;4.886;2023-02-03T04:02:23;102688.50;;;6.62;100.00
1480;BME280;732;51.698;4.886;2023-02-03T04:04:53;102677.84;;;6.39;100.00
1480;BME280;732;51.698;4.886;2023-02-03T04:07:37;102673.53;;;6.40;100.00
1480;BME280;732;51.698;4.886;2023-02-03T04:10:18;102668.59;;;6.28;100.00
1480;BME280;732;51.698;4.886;2023-02-03T04:12:48;102687.69;;;6.45;100.00
1480;BME280;732;51.698;4.886;2023-02-03T04:15:16;102691.81;;;6.40;100.00
1480;BME280;732;51.698;4.886;2023-02-03T04:17:45;102674.06;;;6.33;100.00
1480;BME280;732;51.698;4.886;2023-02-03T04:20:15;102670.47;;;6.31;100.00
1480;BME280;732;51.698;4.886;2023-02-03T04:22:45;102650.84;;;6.21;100.00
1480;BME280;732;51.698;4.886;2023-02-03T04:25:14;102673.81;;;6.28;100.00
1480;BME280;732;51.698;4.886;2023-02-03T04:27:42;102683.47;;;6.29;100.00
1480;BME280;732;51.698;4.886;2023-02-03T04:30:12;102703.00;;;6.37;100.00
1480;BME280;732;51.698;4.886;2023-02-03T04:32:41;102700.09;;;6.31;100.00
1480;BME280;732;51.698;4.886;2023-02-03T04:35:09;102652.44;;;6.02;100.00
1480;BME280;732;51.698;4.886;2023-02-03T04:37:40;102690.22;;;6.26;100.00
1480;BME280;732;51.698;4.886;2023-02-03T04:40:10;102685.47;;;6.17;100.00
1480;BME280;732;51.698;4.886;2023-02-03T04:42:39;102684.34;;;6.30;100.00
1480;BME280;732;51.698;4.886;2023-02-03T04:45:10;102680.38;;;6.20;100.00
1480;BME280;732;51.698;4.886;2023-02-03T04:47:39;102642.47;;;6.11;100.00
1480;BME280;732;51.698;4.886;2023-02-03T04:50:08;102676.88;;;6.37;100.00
1480;BME280;732;51.698;4.886;2023-02-03T04:52:38;102673.81;;;6.28;100.00
1480;BME280;732;51.698;4.886;2023-02-03T04:55:07;102680.03;;;6.30;100.00
1480;BME280;732;51.698;4.886;2023-02-03T04:57:36;102680.75;;;6.28;100.00
1480;BME280;732;51.698;4.886;2023-02-03T05:00:06;102670.66;;;6.35;100.00
1480;BME280;732;51.698;4.886;2023-02-03T05:02:35;102654.50;;;6.25;100.00
1480;BME280;732;51.698;4.886;2023-02-03T05:05:04;102635.34;;;6.08;100.00
1480;BME280;732;51.698;4.886;2023-02-03T05:07:33;102680.63;;;6.25;100.00
1480;BME280;732;51.698;4.886;2023-02-03T05:10:03;102677.28;;;6.27;100.00
1480;BME280;732;51.698;4.886;2023-02-03T05:12:32;102660.44;;;6.05;100.00
1480;BME280;732;51.698;4.886;2023-02-03T05:15:01;102666.59;;;6.23;100.00
1480;BME280;732;51.698;4.886;2023-02-03T05:17:29;102673.16;;;6.32;100.00
1480;BME280;732;51.698;4.886;2023-02-03T05:19:58;102695.25;;;6.21;100.00
1480;BME280;732;51.698;4.886;2023-02-03T05:22:26;102690.59;;;6.33;100.00
1480;BME280;732;51.698;4.886;2023-02-03T05:24:55;102697.34;;;6.28;100.00
1480;BME280;732;51.698;4.886;2023-02-03T05:27:25;102671.28;;;6.12;100.00
1480;BME280;732;51.698;4.886;2023-02-03T05:29:53;102697.09;;;6.24;100.00
1480;BME280;732;51.698;4.886;2023-02-03T05:32:22;102645.59;;;5.70;100.00
1480;BME280;732;51.698;4.886;2023-02-03T05:34:50;102713.72;;;6.08;100.00
1480;BME280;732;51.698;4.886;2023-02-03T05:37:19;102697.50;;;6.14;100.00
1480;BME280;732;51.698;4.886;2023-02-03T05:39:48;102694.88;;;6.14;100.00
1480;BME280;732;51.698;4.886;2023-02-03T05:42:16;102663.84;;;5.86;100.00
1480;BME280;732;51.698;4.886;2023-02-03T05:44:45;102676.41;;;5.77;100.00
1480;BME280;732;51.698;4.886;2023-02-03T05:47:13;102699.31;;;5.99;100.00
1480;BME280;732;51.698;4.886;2023-02-03T05:49:42;102693.00;;;6.11;100.00
1480;BME280;732;51.698;4.886;2023-02-03T05:52:10;102676.38;;;5.93;100.00
1480;BME280;732;51.698;4.886;2023-02-03T05:54:38;102706.16;;;5.97;100.00
1480;BME280;732;51.698;4.886;2023-02-03T05:57:07;102716.16;;;6.05;100.00
1480;BME280;732;51.698;4.886;2023-02-03T05:59:35;102650.84;;;5.70;100.00
1480;BME280;732;51.698;4.886;2023-02-03T06:02:05;102688.84;;;5.99;100.00
1480;BME280;732;51.698;4.886;2023-02-03T06:04:34;102599.94;;;5.62;100.00
1480;BME280;732;51.698;4.886;2023-02-03T06:07:02;102698.41;;;5.98;100.00
1480;BME280;732;51.698;4.886;2023-02-03T06:09:31;102703.94;;;6.04;100.00
1480;BME280;732;51.698;4.886;2023-02-03T06:11:59;102678.25;;;5.96;100.00
1480;BME280;732;51.698;4.886;2023-02-03T06:14:27;102702.50;;;6.27;100.00
1480;BME280;732;51.698;4.886;2023-02-03T06:16:56;102680.31;;;6.19;100.00
1480;BME280;732;51.698;4.886;2023-02-03T06:19:26;102708.53;;;6.26;100.00
1480;BME280;732;51.698;4.886;2023-02-03T06:21:54;102711.22;;;6.10;100.00
1480;BME280;732;51.698;4.886;2023-02-03T06:24:23;102712.78;;;6.24;100.00
1480;BME280;732;51.698;4.886;2023-02-03T06:26:51;102697.81;;;6.20;100.00
1480;BME280;732;51.698;4.886;2023-02-03T06:29:20;102651.16;;;5.94;100.00
1480;BME280;732;51.698;4.886;2023-02-03T06:31:48;102689.66;;;6.14;100.00
1480;BME280;732;51.698;4.886;2023-02-03T06:34:17;102697.88;;;6.21;100.00
1480;BME280;732;51.698;4.886;2023-02-03T06:36:47;102656.63;;;5.98;100.00
1480;BME280;732;51.698;4.886;2023-02-03T06:39:15;102663.84;;;6.04;100.00
1480;BME280;732;51.698;4.886;2023-02-03T06:41:44;102703.16;;;6.23;100.00
1480;BME280;732;51.698;4.886;2023-02-03T06:44:22;102697.50;;;6.14;100.00
1480;BME280;732;51.698;4.886;2023-02-03T06:46:51;102649.69;;;5.99;100.00
1480;BME280;732;51.698;4.886;2023-02-03T06:49:19;102684.81;;;6.05;100.00
1480;BME280;732;51.698;4.886;2023-02-03T06:51:49;102689.66;;;6.14;100.00
1480;BME280;732;51.698;4.886;2023-02-03T06:54:18;102651.06;;;5.92;100.00
1480;BME280;732;51.698;4.886;2023-02-03T06:56:46;102693.84;;;6.10;100.00
1480;BME280;732;51.698;4.886;2023-02-03T06:59:15;102680.25;;;5.84;100.00
1480;BME280;732;51.698;4.886;2023-02-03T07:01:43;102723.59;;;5.98;100.00
1480;BME280;732;51.698;4.886;2023-02-03T07:04:14;102704.72;;;5.86;100.00
1480;BME280;732;51.698;4.886;2023-02-03T07:06:43;102712.25;;;5.80;100.00
1480;BME280;732;51.698;4.886;2023-02-03T07:09:15;102754.63;;;6.08;100.00
1480;BME280;732;51.698;4.886;2023-02-03T07:11:44;102704.66;;;5.84;100.00
1480;BME280;732;51.698;4.886;2023-02-03T07:14:13;102740.44;;;6.03;100.00
1480;BME280;732;51.698;4.886;2023-02-03T07:16:41;102733.53;;;5.87;100.00
1480;BME280;732;51.698;4.886;2023-02-03T07:19:10;102731.81;;;5.88;100.00
1480;BME280;732;51.698;4.886;2023-02-03T07:21:38;102726.22;;;5.80;100.00
1480;BME280;732;51.698;4.886;2023-02-03T07:24:08;102702.38;;;5.74;100.00
1480;BME280;732;51.698;4.886;2023-02-03T07:26:38;102698.34;;;5.81;100.00
1480;BME280;732;51.698;4.886;2023-02-03T07:29:07;102729.03;;;5.85;100.00
1480;BME280;732;51.698;4.886;2023-02-03T07:31:35;102721.84;;;5.81;100.00
1480;BME280;732;51.698;4.886;2023-02-03T07:34:04;102710.03;;;5.87;100.00
1480;BME280;732;51.698;4.886;2023-02-03T07:36:33;102757.41;;;6.11;100.00
1480;BME280;732;51.698;4.886;2023-02-03T07:39:02;102768.69;;;6.10;100.00
1480;BME280;732;51.698;4.886;2023-02-03T07:41:31;102754.13;;;6.15;100.00
1480;BME280;732;51.698;4.886;2023-02-03T07:44:01;102700.28;;;5.67;100.00
1480;BME280;732;51.698;4.886;2023-02-03T07:46:29;102765.91;;;6.07;100.00
1480;BME280;732;51.698;4.886;2023-02-03T07:48:58;102772.00;;;6.07;100.00
1480;BME280;732;51.698;4.886;2023-02-03T07:51:26;102763.44;;;5.94;100.00
1480;BME280;732;51.698;4.886;2023-02-03T07:53:56;102769.81;;;5.99;100.00
1480;BME280;732;51.698;4.886;2023-02-03T07:56:24;102781.63;;;6.08;100.00
1480;BME280;732;51.698;4.886;2023-02-03T07:58:53;102729.47;;;5.76;100.00
1480;BME280;732;51.698;4.886;2023-02-03T08:01:23;102776.25;;;6.05;100.00
1480;BME280;732;51.698;4.886;2023-02-03T08:03:52;102786.97;;;6.10;100.00
1480;BME280;732;51.698;4.886;2023-02-03T08:06:21;102795.78;;;6.12;100.00
1480;BME280;732;51.698;4.886;2023-02-03T08:08:50;102755.84;;;5.98;100.00
1480;BME280;732;51.698;4.886;2023-02-03T08:11:22;102767.84;;;6.11;100.00
1480;BME280;732;51.698;4.886;2023-02-03T08:13:51;102793.94;;;6.27;100.00
1480;BME280;732;51.698;4.886;2023-02-03T08:16:19;102788.50;;;6.06;100.00
1480;BME280;732;51.698;4.886;2023-02-03T08:18:49;102786.47;;;6.17;100.00
1480;BME280;732;51.698;4.886;2023-02-03T08:21:18;102752.50;;;6.01;100.00
1480;BME280;732;51.698;4.886;2023-02-03T08:23:46;102735.03;;;6.00;100.00
1480;BME280;732;51.698;4.886;2023-02-03T08:26:15;102745.03;;;6.24;100.00
1480;BME280;732;51.698;4.886;2023-02-03T08:28:47;102792.84;;;6.39;100.00
1480;BME280;732;51.698;4.886;2023-02-03T08:31:17;102761.16;;;6.16;100.00
1480;BME280;732;51.698;4.886;2023-02-03T08:33:45;102730.53;;;6.13;100.00
1480;BME280;732;51.698;4.886;2023-02-03T08:36:15;102814.47;;;6.37;100.00
1480;BME280;732;51.698;4.886;2023-02-03T08:38:44;102779.00;;;6.24;100.00
1480;BME280;732;51.698;4.886;2023-02-03T08:41:15;102794.69;;;6.24;100.00
1480;BME280;732;51.698;4.886;2023-02-03T08:43:48;102802.56;;;6.42;100.00
1480;BME280;732;51.698;4.886;2023-02-03T08:46:16;102801.97;;;6.47;100.00
1480;BME280;732;51.698;4.886;2023-02-03T08:48:45;102830.81;;;6.84;100.00
1480;BME280;732;51.698;4.886;2023-02-03T08:51:16;102772.69;;;6.54;100.00
1480;BME280;732;51.698;4.886;2023-02-03T08:53:45;102812.97;;;6.76;100.00
1480;BME280;732;51.698;4.886;2023-02-03T08:56:14;102764.75;;;6.35;100.00
1480;BME280;732;51.698;4.886;2023-02-03T08:58:42;102827.47;;;6.87;100.00
1480;BME280;732;51.698;4.886;2023-02-03T09:01:13;102814.50;;;6.90;100.00
1480;BME280;732;51.698;4.886;2023-02-03T09:03:42;102827.53;;;7.06;100.00
1480;BME280;732;51.698;4.886;2023-02-03T09:06:11;102770.44;;;6.62;100.00
1480;BME280;732;51.698;4.886;2023-02-03T09:08:44;102773.00;;;6.78;100.00
1480;BME280;732;51.698;4.886;2023-02-03T09:11:15;102819.25;;;6.97;100.00
1480;BME280;732;51.698;4.886;2023-02-03T09:13:45;102803.91;;;6.87;100.00
1480;BME280;732;51.698;4.886;2023-02-03T09:16:17;102815.13;;;7.02;100.00
1480;BME280;732;51.698;4.886;2023-02-03T09:18:47;102817.81;;;7.03;100.00
1480;BME280;732;51.698;4.886;2023-02-03T09:21:16;102822.72;;;7.15;100.00
1480;BME280;732;51.698;4.886;2023-02-03T09:24:05;102824.97;;;7.25;100.00
1480;BME280;732;51.698;4.886;2023-02-03T09:26:35;102787.66;;;7.11;100.00
1480;BME280;732;51.698;4.886;2023-02-03T09:29:03;102789.88;;;6.85;100.00
1480;BME280;732;51.698;4.886;2023-02-03T09:31:33;102794.34;;;6.87;100.00
1480;BME280;732;51.698;4.886;2023-02-03T09:34:02;102848.75;;;7.12;100.00
1480;BME280;732;51.698;4.886;2023-02-03T09:36:33;102786.22;;;6.81;100.00
1480;BME280;732;51.698;4.886;2023-02-03T09:39:03;102816.88;;;7.20;100.00
1480;BME280;732;51.698;4.886;2023-02-03T09:44:36;102800.94;;;6.79;100.00
1480;BME280;732;51.698;4.886;2023-02-03T09:47:12;102866.25;;;7.13;100.00
1480;BME280;732;51.698;4.886;2023-02-03T09:49:46;102870.50;;;7.28;100.00
1480;BME280;732;51.698;4.886;2023-02-03T09:52:19;102851.75;;;7.02;100.00
1480;BME280;732;51.698;4.886;2023-02-03T09:54:55;102851.81;;;7.21;100.00
1480;BME280;732;51.698;4.886;2023-02-03T09:57:26;102819.63;;;7.04;100.00
1480;BME280;732;51.698;4.886;2023-02-03T09:59:57;102859.06;;;7.26;100.00
1480;BME280;732;51.698;4.886;2023-02-03T10:02:43;102790.28;;;7.11;100.00
1480;BME280;732;51.698;4.886;2023-02-03T10:05:21;102855.09;;;7.53;100.00
1480;BME280;732;51.698;4.886;2023-02-03T10:08:01;102817.13;;;7.44;100.00
1480;BME280;732;51.698;4.886;2023-02-03T10:10:39;102839.50;;;7.74;100.00
1480;BME280;732;51.698;4.886;2023-02-03T10:13:21;102851.38;;;7.66;100.00
1480;BME280;732;51.698;4.886;2023-02-03T10:16:10;102852.00;;;7.43;100.00
1480;BME280;732;51.698;4.886;2023-02-03T10:18:46;102870.75;;;7.52;100.00
1480;BME280;732;51.698;4.886;2023-02-03T10:21:23;102861.38;;;7.75;100.00
1480;BME280;732;51.698;4.886;2023-02-03T10:23:58;102861.22;;;7.72;100.00
1480;BME280;732;51.698;4.886;2023-02-03T10:26:29;102824.66;;;7.36;100.00
1480;BME280;732;51.698;4.886;2023-02-03T10:29:04;102842.22;;;7.58;100.00
1480;BME280;732;51.698;4.886;2023-02-03T10:31:35;102868.66;;;7.82;100.00
1480;BME280;732;51.698;4.886;2023-02-03T10:34:11;102814.91;;;7.71;100.00
1480;BME280;732;51.698;4.886;2023-02-03T10:36:52;102873.97;;;8.02;100.00
1480;BME280;732;51.698;4.886;2023-02-03T10:39:30;102860.56;;;8.15;100.00
1480;BME280;732;51.698;4.886;2023-02-03T10:42:03;102827.66;;;7.82;100.00
1480;BME280;732;51.698;4.886;2023-02-03T10:44:37;102868.88;;;8.24;100.00
1480;BME280;732;51.698;4.886;2023-02-03T10:47:32;102865.38;;;8.44;100.00
1480;BME280;732;51.698;4.886;2023-02-03T10:50:06;102862.75;;;8.44;100.00
1480;BME280;732;51.698;4.886;2023-02-03T10:52:45;102871.31;;;8.40;100.00
1480;BME280;732;51.698;4.886;2023-02-03T10:55:30;102823.63;;;8.49;100.00
1480;BME280;732;51.698;4.886;2023-02-03T10:58:09;102864.75;;;8.50;100.00
1480;BME280;732;51.698;4.886;2023-02-03T11:00:41;102880.44;;;8.69;100.00
1480;BME280;732;51.698;4.886;2023-02-03T11:03:22;102845.47;;;8.49;100.00
1480;BME280;732;51.698;4.886;2023-02-03T11:06:09;102833.31;;;8.31;100.00
1480;BME280;732;51.698;4.886;2023-02-03T11:08:41;102843.19;;;8.57;100.00
1480;BME280;732;51.698;4.886;2023-02-03T11:11:14;102884.50;;;8.83;100.00
1480;BME280;732;51.698;4.886;2023-02-03T11:13:44;102815.88;;;8.52;100.00
1480;BME280;732;51.698;4.886;2023-02-03T11:16:15;102843.19;;;8.57;100.00
1480;BME280;732;51.698;4.886;2023-02-03T11:18:54;102885.63;;;8.68;100.00
1480;BME280;732;51.698;4.886;2023-02-03T11:21:26;102891.63;;;8.65;100.00
1480;BME280;732;51.698;4.886;2023-02-03T11:24:02;102851.56;;;8.48;100.00
1480;BME280;732;51.698;4.886;2023-02-03T11:26:34;102872.72;;;8.74;100.00
1480;BME280;732;51.698;4.886;2023-02-03T11:29:05;102859.72;;;8.75;100.00
1480;BME280;732;51.698;4.886;2023-02-03T11:31:46;102832.19;;;8.45;100.00
1480;BME280;732;51.698;4.886;2023-02-03T11:34:19;102818.81;;;8.80;100.00
1480;BME280;732;51.698;4.886;2023-02-03T11:36:50;102870.56;;;8.84;100.00
1480;BME280;732;51.698;4.886;2023-02-03T11:39:25;102851.00;;;8.76;100.00
1480;BME280;732;51.698;4.886;2023-02-03T11:41:55;102882.16;;;8.69;100.00
1480;BME280;732;51.698;4.886;2023-02-03T11:44:27;102880.00;;;8.79;100.00
1480;BME280;732;51.698;4.886;2023-02-03T11:47:01;102869.03;;;8.89;100.00
1480;BME280;732;51.698;4.886;2023-02-03T11:50:14;102833.91;;;8.65;100.00
1480;BME280;732;51.698;4.886;2023-02-03T11:53:13;102844.97;;;8.79;100.00
1480;BME280;732;51.698;4.886;2023-02-03T11:56:24;102874.41;;;8.92;100.00
1480;BME280;732;51.698;4.886;2023-02-03T11:59:19;102848.22;;;8.94;100.00
1480;BME280;732;51.698;4.886;2023-02-03T12:05:45;102846.16;;;9.50;100.00
1480;BME280;732;51.698;4.886;2023-02-03T12:08:31;102853.25;;;9.30;100.00
1480;BME280;732;51.698;4.886;2023-02-03T12:11:14;102852.69;;;9.17;100.00
1480;BME280;732;51.698;4.886;2023-02-03T12:14:09;102823.47;;;8.87;100.00
1480;BME280;732;51.698;4.886;2023-02-03T12:17:04;102859.06;;;8.81;100.00
1480;BME280;732;51.698;4.886;2023-02-03T12:20:04;102853.63;;;8.56;100.00
1480;BME280;732;51.698;4.886;2023-02-03T12:22:44;102832.03;;;8.42;100.00
1480;BME280;732;51.698;4.886;2023-02-03T12:25:32;102865.28;;;8.62;100.00
1480;BME280;732;51.698;4.886;2023-02-03T12:28:16;102868.44;;;8.76;100.00
1480;BME280;732;51.698;4.886;2023-02-03T12:31:06;102843.50;;;8.85;100.00
1480;BME280;732;51.698;4.886;2023-02-03T12:33:42;102816.06;;;8.77;100.00
1480;BME280;732;51.698;4.886;2023-02-03T12:36:19;102856.09;;;8.94;100.00
1480;BME280;732;51.698;4.886;2023-02-03T12:38:55;102839.16;;;8.65;100.00
1480;BME280;732;51.698;4.886;2023-02-03T12:41:28;102856.50;;;8.82;100.00
1480;BME280;732;51.698;4.886;2023-02-03T12:44:03;102850.00;;;9.15;100.00
1480;BME280;732;51.698;4.886;2023-02-03T12:46:39;102813.91;;;8.89;100.00
1480;BME280;732;51.698;4.886;2023-02-03T12:49:24;102844.44;;;9.08;100.00
1480;BME280;732;51.698;4.886;2023-02-03T12:52:00;102883.13;;;9.12;100.00
1480;BME280;732;51.698;4.886;2023-02-03T12:54:40;102886.81;;;9.17;100.00
1480;BME280;732;51.698;4.886;2023-02-03T12:57:19;102851.97;;;9.00;100.00
1480;BME280;732;51.698;4.886;2023-02-03T13:00:02;102881.06;;;9.25;100.00
1480;BME280;732;51.698;4.886;2023-02-03T13:02:39;102886.25;;;9.24;100.00
1480;BME280;732;51.698;4.886;2023-02-03T13:05:21;102874.22;;;9.08;100.00
1480;BME280;732;51.698;4.886;2023-02-03T13:08:01;102853.88;;;8.62;100.00
1480;BME280;732;51.698;4.886;2023-02-03T13:10:38;102898.69;;;8.87;100.00
1480;BME280;732;51.698;4.886;2023-02-03T13:13:22;102870.00;;;8.71;100.00
1480;BME280;732;51.698;4.886;2023-02-03T13:15:54;102872.81;;;8.55;100.00
1480;BME280;732;51.698;4.886;2023-02-03T13:18:28;102844.78;;;8.74;100.00
1480;BME280;732;51.698;4.886;2023-02-03T13:20:58;102883.50;;;9.21;100.00
1480;BME280;732;51.698;4.886;2023-02-03T13:23:29;102904.44;;;9.19;100.00
1480;BME280;732;51.698;4.886;2023-02-03T13:26:34;102912.72;;;9.08;100.00
1480;BME280;732;51.698;4.886;2023-02-03T13:29:23;102874.59;;;8.56;100.00
1480;BME280;732;51.698;4.886;2023-02-03T13:32:09;102931.06;;;8.87;100.00
1480;BME280;732;51.698;4.886;2023-02-03T13:35:09;102883.22;;;8.74;100.00
1480;BME280;732;51.698;4.886;2023-02-03T13:38:19;102928.94;;;8.79;100.00
1480;BME280;732;51.698;4.886;2023-02-03T13:40:59;102930.78;;;8.81;100.00
1480;BME280;732;51.698;4.886;2023-02-03T13:43:32;102880.03;;;8.39;100.00
1480;BME280;732;51.698;4.886;2023-02-03T13:46:07;102901.09;;;8.62;100.00
1480;BME280;732;51.698;4.886;2023-02-03T13:48:47;102935.09;;;9.00;100.00
1480;BME280;732;51.698;4.886;2023-02-03T13:51:19;102895.47;;;8.73;100.00
1480;BME280;732;51.698;4.886;2023-02-03T13:53:49;102925.63;;;8.83;100.00
1480;BME280;732;51.698;4.886;2023-02-03T13:56:22;102934.56;;;8.67;100.00
1480;BME280;732;51.698;4.886;2023-02-03T13:59:01;102902.16;;;8.27;100.00
1480;BME280;732;51.698;4.886;2023-02-03T14:01:35;102936.69;;;8.36;100.00
1480;BME280;732;51.698;4.886;2023-02-03T14:04:05;102906.19;;;8.19;100.00